createdAt,value
2018-12-03T00:01:49.974Z,99252.73
2018-12-03T00:04:19.603Z,99263.31
2018-12-03T00:06:47.865Z,99265.22
2018-12-03T00:09:16.028Z,99265.58
2018-12-03T00:11:44.189Z,99262.16
2018-12-03T00:14:12.398Z,99260.97
2018-12-03T00:16:40.564Z,99264.30
2018-12-03T00:19:08.951Z,99267.27
2018-12-03T00:21:37.107Z,99265.13
2018-12-03T00:24:05.739Z,99268.82
2018-12-03T00:26:33.854Z,99264.78
2018-12-03T00:29:01.979Z,99272.50
2018-12-03T00:31:30.128Z,99269.41
2018-12-03T00:33:58.294Z,99266.80
2018-12-03T00:36:26.452Z,99273.33
2018-12-03T00:38:54.596Z,99272.38
2018-12-03T00:41:22.764Z,99263.70
2018-12-03T00:43:50.959Z,99266.33
2018-12-03T00:46:19.107Z,99268.11
2018-12-03T00:48:47.275Z,99261.57
2018-12-03T00:51:15.455Z,99269.17
2018-12-03T00:53:43.725Z,99267.27
2018-12-03T00:56:11.879Z,99263.95
2018-12-03T00:58:40.006Z,99270.84
2018-12-03T01:01:08.196Z,99269.30
2018-12-03T01:03:36.363Z,99265.61
2018-12-03T01:06:04.897Z,99266.67
2018-12-03T01:08:33.047Z,99265.49
2018-12-03T01:11:01.267Z,99259.91
2018-12-03T01:13:29.415Z,99267.16
2018-12-03T01:15:57.535Z,99264.19
2018-12-03T01:18:25.690Z,99260.62
2018-12-03T01:20:54.548Z,99262.16
2018-12-03T01:23:22.703Z,99261.45
2018-12-03T01:25:50.858Z,99260.14
2018-12-03T01:28:19.064Z,99259.07
2018-12-03T01:30:47.169Z,99249.21
2018-12-03T01:33:15.303Z,99260.73
2018-12-03T01:35:43.479Z,99255.95
2018-12-03T01:38:11.616Z,99257.14
2018-12-03T01:40:39.771Z,99261.45
2018-12-03T01:43:07.922Z,99262.48
2018-12-03T01:45:36.110Z,99262.01
2018-12-03T01:48:04.263Z,99253.61
2018-12-03T01:50:32.488Z,99262.48
2018-12-03T01:53:00.664Z,99258.56
2018-12-03T01:55:28.833Z,99256.54
2018-12-03T01:57:56.960Z,99254.31
2018-12-03T02:00:25.219Z,99254.40
2018-12-03T02:02:53.422Z,99254.64
2018-12-03T02:05:21.554Z,99249.17
2018-12-03T02:07:49.711Z,99257.84
2018-12-03T02:10:17.908Z,99250.70
2018-12-03T02:12:46.067Z,99252.38
2018-12-03T02:15:15.443Z,99251.66
2018-12-03T02:17:43.847Z,99248.69
2018-12-03T02:20:13.227Z,99244.41
2018-12-03T02:22:41.396Z,99246.78
2018-12-03T02:25:10.316Z,99245.60
2018-12-03T02:27:38.474Z,99245.72
2018-12-03T02:30:12.912Z,99245.48
2018-12-03T02:32:41.500Z,99240.38
2018-12-03T02:35:10.928Z,99236.67
2018-12-03T02:37:39.296Z,99238.94
2018-12-03T02:40:10.147Z,99242.51
2018-12-03T02:42:38.320Z,99241.20
2018-12-03T02:45:09.122Z,99239.17
2018-12-03T02:47:37.258Z,99237.04
2018-12-03T02:50:07.077Z,99239.05
2018-12-03T02:52:35.863Z,99223.25
2018-12-03T02:55:04.599Z,99228.00
2018-12-03T02:57:32.711Z,99231.22
2018-12-03T03:00:00.853Z,99227.30
2018-12-03T03:02:29.731Z,99223.36
2018-12-03T03:04:57.948Z,99228.00
2018-12-03T03:07:26.120Z,99230.98
2018-12-03T03:09:54.318Z,99231.92
2018-12-03T03:12:22.495Z,99225.03
2018-12-03T03:14:50.661Z,99219.92
2018-12-03T03:17:18.874Z,99226.11
2018-12-03T03:19:47.027Z,99230.74
2018-12-03T03:22:15.120Z,99228.00
2018-12-03T03:24:43.279Z,99220.75
2018-12-03T03:27:11.475Z,99218.01
2018-12-03T03:29:39.627Z,99220.50
2018-12-03T03:32:07.781Z,99215.75
2018-12-03T03:34:35.927Z,99217.77
2018-12-03T03:37:04.083Z,99220.62
2018-12-03T03:39:32.204Z,99219.78
2018-12-03T03:42:00.340Z,99212.72
2018-12-03T03:44:28.511Z,99208.02
2018-12-03T03:46:56.659Z,99214.55
2018-12-03T03:49:24.817Z,99215.59
2018-12-03T03:51:52.942Z,99218.83
2018-12-03T03:54:25.326Z,99217.60
2018-12-03T03:56:49.315Z,99210.09
2018-12-03T03:59:17.483Z,99211.17
2018-12-03T04:01:45.631Z,99214.75
2018-12-03T04:04:13.756Z,99213.68
2018-12-03T04:06:41.921Z,99209.21
2018-12-03T04:09:10.032Z,99211.94
2018-12-03T04:11:38.171Z,99208.84
2018-12-03T04:14:06.360Z,99209.21
2018-12-03T04:16:34.533Z,99202.78
2018-12-03T04:19:02.669Z,99200.53
2018-12-03T04:21:30.828Z,99200.64
2018-12-03T04:23:58.977Z,99200.66
2018-12-03T04:26:27.135Z,99198.98
2018-12-03T04:28:55.323Z,99196.14
2018-12-03T04:31:23.497Z,99192.20
2018-12-03T04:33:51.656Z,99184.01
2018-12-03T04:36:19.819Z,99185.55
2018-12-03T04:38:47.977Z,99178.48
2018-12-03T04:41:16.172Z,99183.77
2018-12-03T04:43:44.338Z,99177.22
2018-12-03T04:46:12.504Z,99175.69
2018-12-03T04:48:40.736Z,99172.47
2018-12-03T04:51:08.860Z,99169.04
2018-12-03T04:53:37.027Z,99170.81
2018-12-03T04:56:05.264Z,99173.69
2018-12-03T04:58:33.411Z,99173.44
2018-12-03T05:01:01.536Z,99166.53
2018-12-03T05:03:29.678Z,99169.27
2018-12-03T05:05:57.829Z,99174.73
2018-12-03T05:08:25.962Z,99178.66
2018-12-03T05:10:54.116Z,99175.31
2018-12-03T05:13:22.279Z,99171.52
2018-12-03T05:15:50.382Z,99168.98
2018-12-03T05:18:18.531Z,99163.85
2018-12-03T05:20:46.703Z,99170.75
2018-12-03T05:23:14.877Z,99163.98
2018-12-03T05:25:43.063Z,99166.33
2018-12-03T05:28:11.211Z,99157.27
2018-12-03T05:30:39.391Z,99157.19
2018-12-03T05:33:07.551Z,99153.98
2018-12-03T05:35:35.736Z,99155.42
2018-12-03T05:38:03.943Z,99152.56
2018-12-03T05:40:32.358Z,99136.97
2018-12-03T05:43:00.496Z,99146.48
2018-12-03T05:45:28.627Z,99138.50
2018-12-03T05:47:56.742Z,99133.38
2018-12-03T05:50:24.834Z,99132.84
2018-12-03T05:52:53.043Z,99133.95
2018-12-03T05:55:21.178Z,99141.64
2018-12-03T05:57:49.347Z,99135.61
2018-12-03T06:00:18.902Z,99140.56
2018-12-03T06:02:47.065Z,99134.48
2018-12-03T06:05:15.431Z,99139.03
2018-12-03T06:07:43.898Z,99139.86
2018-12-03T06:10:14.291Z,99149.17
2018-12-03T06:12:42.395Z,99151.52
2018-12-03T06:15:12.942Z,99139.19
2018-12-03T06:17:41.111Z,99137.95
2018-12-03T06:20:14.176Z,99134.80
2018-12-03T06:22:42.498Z,99132.31
2018-12-03T06:25:16.878Z,99132.80
2018-12-03T06:27:44.999Z,99134.80
2018-12-03T06:30:15.273Z,99133.02
2018-12-03T06:32:44.602Z,99138.02
2018-12-03T06:35:13.729Z,99134.60
2018-12-03T06:37:41.895Z,99138.53
2018-12-03T06:40:14.263Z,99128.79
2018-12-03T06:42:42.403Z,99127.55
2018-12-03T06:45:13.771Z,99136.27
2018-12-03T06:47:43.999Z,99129.38
2018-12-03T06:50:12.171Z,99131.36
2018-12-03T06:52:40.378Z,99134.58
2018-12-03T06:55:10.056Z,99123.30
2018-12-03T06:57:38.181Z,99123.30
2018-12-03T07:00:14.803Z,99119.98
2018-12-03T07:02:43.202Z,99137.72
2018-12-03T07:05:11.599Z,99136.39
2018-12-03T07:07:40.176Z,99140.06
2018-12-03T07:10:13.693Z,99160.77
2018-12-03T07:12:41.948Z,99156.14
2018-12-03T07:15:11.482Z,99173.16
2018-12-03T07:17:39.630Z,99168.27
2018-12-03T07:20:12.719Z,99155.03
2018-12-03T07:22:41.010Z,99162.41
2018-12-03T07:25:11.295Z,99163.56
2018-12-03T07:27:39.504Z,99159.77
2018-12-03T07:30:17.831Z,99164.17
2018-12-03T07:32:47.284Z,99172.92
2018-12-03T07:35:15.431Z,99169.48
2018-12-03T07:37:43.617Z,99161.73
2018-12-03T07:40:12.486Z,99174.79
2018-12-03T07:42:41.579Z,99175.87
2018-12-03T07:45:19.740Z,99184.67
2018-12-03T07:47:47.904Z,99188.62
2018-12-03T07:50:18.005Z,99185.41
2018-12-03T07:52:46.203Z,99198.36
2018-12-03T07:55:18.455Z,99199.92
2018-12-03T07:57:51.483Z,99204.55
2018-12-03T08:00:22.728Z,99208.53
2018-12-03T08:02:50.818Z,99209.20
2018-12-03T08:05:18.959Z,99209.20
2018-12-03T08:07:47.090Z,99212.70
2018-12-03T08:10:16.423Z,99215.67
2018-12-03T08:12:45.149Z,99204.49
2018-12-03T08:15:17.412Z,99206.28
2018-12-03T08:17:49.654Z,99207.36
2018-12-03T08:20:21.361Z,99213.20
2018-12-03T08:22:51.500Z,99217.60
2018-12-03T08:25:20.424Z,99220.34
2018-12-03T08:27:48.567Z,99209.40
2018-12-03T08:30:16.704Z,99216.65
2018-12-03T08:32:44.839Z,99217.37
2018-12-03T08:35:14.531Z,99230.13
2018-12-03T08:37:42.760Z,99231.67
2018-12-03T08:40:18.240Z,99231.20
2018-12-03T08:42:51.064Z,99241.63
2018-12-03T08:45:19.815Z,99235.08
2018-12-03T08:47:48.386Z,99237.34
2018-12-03T08:50:19.437Z,99233.66
2018-12-03T08:52:47.571Z,99236.15
2018-12-03T08:55:15.684Z,99234.48
2018-12-03T08:57:43.783Z,99237.58
2018-12-03T09:00:15.351Z,99238.88
2018-12-03T09:02:57.247Z,99233.66
2018-12-03T09:05:26.283Z,99240.80
2018-12-03T09:07:54.411Z,99237.81
2018-12-03T09:10:23.137Z,99234.77
2018-12-03T09:12:51.453Z,99243.57
2018-12-03T09:15:19.619Z,99246.91
2018-12-03T09:17:47.784Z,99240.84
2018-12-03T09:20:15.936Z,99244.65
2018-12-03T09:22:44.076Z,99244.41
2018-12-03T09:25:22.563Z,99248.80
2018-12-03T09:27:50.723Z,99248.69
2018-12-03T09:30:19.134Z,99240.59
2018-12-03T09:32:49.387Z,99246.30
2018-12-03T09:35:17.511Z,99245.83
2018-12-03T09:37:45.688Z,99243.09
2018-12-03T09:40:16.484Z,99244.05
2018-12-03T09:42:44.595Z,99244.63
2018-12-03T09:45:15.663Z,99250.22
2018-12-03T09:47:43.904Z,99251.25
2018-12-03T09:50:18.112Z,99253.39
2018-12-03T09:52:46.254Z,99260.41
2018-12-03T09:55:16.105Z,99259.45
2018-12-03T09:57:44.339Z,99251.55
2018-12-03T10:00:17.913Z,99260.03
2018-12-03T10:02:46.259Z,99254.33
2018-12-03T10:05:15.729Z,99255.76
2018-12-03T10:07:43.857Z,99247.19
2018-12-03T10:10:13.788Z,99245.89
2018-12-03T10:12:41.895Z,99243.50
2018-12-03T10:15:12.077Z,99244.45
2018-12-03T10:17:40.199Z,99249.92
2018-12-03T10:20:10.731Z,99239.70
2018-12-03T10:22:39.396Z,99237.08
2018-12-03T10:25:14.103Z,99230.97
2018-12-03T10:27:42.438Z,99225.44
2018-12-03T10:30:26.607Z,99241.61
2018-12-03T10:32:54.854Z,99247.45
2018-12-03T10:35:22.967Z,99247.67
2018-12-03T10:37:51.119Z,99249.94
2018-12-03T10:40:20.722Z,99239.95
2018-12-03T10:42:49.593Z,99248.39
2018-12-03T10:45:25.952Z,99249.34
2018-12-03T10:47:48.870Z,99247.80
2018-12-03T10:50:22.294Z,99249.23
2018-12-03T10:52:47.172Z,99249.35
2018-12-03T10:55:15.281Z,99251.25
2018-12-03T10:57:44.787Z,99249.59
2018-12-03T11:00:21.208Z,99243.45
2018-12-03T11:02:56.850Z,99247.45
2018-12-03T11:05:35.576Z,99252.55
2018-12-03T11:08:03.800Z,99252.08
2018-12-03T11:10:34.358Z,99259.33
2018-12-03T11:13:02.490Z,99263.97
2018-12-03T11:15:30.623Z,99262.31
2018-12-03T11:17:59.403Z,99258.97
2018-12-03T11:20:27.532Z,99255.30
2018-12-03T11:22:55.637Z,99257.20
2018-12-03T11:25:29.551Z,99264.45
2018-12-03T11:28:02.045Z,99258.51
2018-12-03T11:30:30.660Z,99254.27
2018-12-03T11:32:58.796Z,99260.94
2018-12-03T11:35:29.475Z,99267.59
2018-12-03T11:38:13.798Z,99265.34
2018-12-03T11:40:45.367Z,99272.50
2018-12-03T11:43:13.483Z,99263.59
2018-12-03T11:45:41.590Z,99272.03
2018-12-03T11:48:09.683Z,99267.27
2018-12-03T11:50:38.063Z,99275.00
2018-12-03T11:53:06.189Z,99274.41
2018-12-03T11:55:34.294Z,99270.13
2018-12-03T11:58:02.460Z,99269.77
2018-12-03T12:00:30.579Z,99263.11
2018-12-03T12:02:58.745Z,99263.47
2018-12-03T12:05:26.843Z,99260.46
2018-12-03T12:07:54.996Z,99264.38
2018-12-03T12:10:23.119Z,99262.84
2018-12-03T12:12:51.332Z,99261.05
2018-12-03T12:15:19.463Z,99259.03
2018-12-03T12:17:47.563Z,99260.70
2018-12-03T12:20:15.711Z,99254.99
2018-12-03T12:22:43.795Z,99250.70
2018-12-03T12:25:12.999Z,99262.36
2018-12-03T12:27:44.532Z,99254.16
2018-12-03T12:30:14.354Z,99262.00
2018-12-03T12:32:42.477Z,99252.02
2018-12-03T12:35:10.882Z,99250.83
2018-12-03T12:37:38.987Z,99250.95
2018-12-03T12:40:10.771Z,99249.40
2018-12-03T12:42:39.072Z,99241.78
2018-12-03T12:45:14.331Z,99246.19
2018-12-03T12:47:42.451Z,99253.09
2018-12-03T12:50:13.520Z,99257.48
2018-12-03T12:52:41.651Z,99258.67
2018-12-03T12:55:09.751Z,99247.27
2018-12-03T12:57:37.863Z,99245.60
2018-12-03T13:00:11.359Z,99244.88
2018-12-03T13:02:39.520Z,99265.45
2018-12-03T13:05:07.702Z,99262.23
2018-12-03T13:07:35.819Z,99256.30
2018-12-03T13:10:04.475Z,99259.02
2018-12-03T13:12:32.586Z,99260.89
2018-12-03T13:15:00.689Z,99266.87
2018-12-03T13:17:28.791Z,99267.47
2018-12-03T13:19:56.942Z,99270.91
2018-12-03T13:22:34.051Z,99275.55
2018-12-03T13:25:02.351Z,99269.13
2018-12-03T13:27:30.463Z,99274.96
2018-12-03T13:29:58.583Z,99269.02
2018-12-03T13:32:26.694Z,99267.83
2018-12-03T13:34:54.803Z,99266.41
2018-12-03T13:37:22.925Z,99266.41
2018-12-03T13:39:54.079Z,99262.96
2018-12-03T13:42:22.208Z,99262.48
2018-12-03T13:44:50.315Z,99262.48
2018-12-03T13:47:18.411Z,99259.51
2018-12-03T13:49:46.519Z,99259.27
2018-12-03T13:52:14.627Z,99256.30
2018-12-03T13:54:42.738Z,99248.80
2018-12-03T13:57:10.853Z,99238.59
2018-12-03T13:59:38.938Z,99241.44
2018-12-03T14:02:08.727Z,99240.02
2018-12-03T14:04:36.909Z,99241.31
2018-12-03T14:07:11.119Z,99237.04
2018-12-03T14:09:48.634Z,99230.98
2018-12-03T14:12:36.866Z,99234.78
2018-12-03T14:15:16.436Z,99229.79
2018-12-03T14:17:54.831Z,99236.56
2018-12-03T14:20:23.687Z,99245.23
2018-12-03T14:22:59.630Z,99253.56
2018-12-03T14:25:27.739Z,99258.92
2018-12-03T14:27:55.852Z,99267.48
2018-12-03T14:30:23.967Z,99258.44
2018-12-03T14:32:52.091Z,99259.04
2018-12-03T14:35:20.196Z,99267.27
2018-12-03T14:37:48.339Z,99264.89
2018-12-03T14:40:16.446Z,99259.78
2018-12-03T14:42:44.531Z,99260.02
2018-12-03T14:45:12.837Z,99261.56
2018-12-03T14:47:40.938Z,99256.94
2018-12-03T14:50:10.447Z,99260.66
2018-12-03T14:52:38.555Z,99261.95
2018-12-03T14:55:07.446Z,99261.13
2018-12-03T14:57:35.537Z,99270.50
2018-12-03T15:00:03.704Z,99268.51
2018-12-03T15:02:31.761Z,99278.95
2018-12-03T15:04:59.869Z,99271.95
2018-12-03T15:07:27.967Z,99264.68
2018-12-03T15:09:56.096Z,99275.26
2018-12-03T15:12:24.191Z,99270.98
2018-12-03T15:14:52.352Z,99269.58
2018-12-03T15:17:20.456Z,99274.09
2018-12-03T15:19:48.572Z,99274.92
2018-12-03T15:22:16.671Z,99272.66
2018-12-03T15:24:44.793Z,99275.63
2018-12-03T15:27:12.929Z,99271.23
2018-12-03T15:29:41.064Z,99269.58
2018-12-03T15:32:09.195Z,99272.55
2018-12-03T15:34:37.327Z,99266.48
2018-12-03T15:37:05.452Z,99268.63
2018-12-03T15:39:33.554Z,99259.70
2018-12-03T15:42:01.679Z,99257.92
2018-12-03T15:44:29.795Z,99262.69
2018-12-03T15:46:57.922Z,99265.88
2018-12-03T15:49:26.059Z,99265.30
2018-12-03T15:51:54.166Z,99267.55
2018-12-03T15:54:22.283Z,99270.16
2018-12-03T15:56:50.379Z,99268.26
2018-12-03T15:59:18.490Z,99272.77
2018-12-03T16:01:46.616Z,99277.28
2018-12-03T16:04:14.827Z,99277.28
2018-12-03T16:06:42.908Z,99270.88
2018-12-03T16:09:12.480Z,99272.41
2018-12-03T16:11:40.579Z,99272.88
2018-12-03T16:14:08.683Z,99275.14
2018-12-03T16:16:36.791Z,99266.94
2018-12-03T16:19:04.986Z,99276.11
2018-12-03T16:21:33.089Z,99277.30
2018-12-03T16:24:01.183Z,99270.86
2018-12-03T16:26:29.311Z,99275.41
2018-12-03T16:28:57.419Z,99277.16
2018-12-03T16:31:25.550Z,99267.30
2018-12-03T16:33:53.651Z,99277.99
2018-12-03T16:36:21.863Z,99281.32
2018-12-03T16:38:50.000Z,99287.27
2018-12-03T16:41:18.163Z,99286.06
2018-12-03T16:43:46.293Z,99294.50
2018-12-03T16:46:14.426Z,99294.73
2018-12-03T16:48:42.534Z,99298.18
2018-12-03T16:51:10.640Z,99306.13
2018-12-03T16:53:39.195Z,99308.28
2018-12-03T16:56:07.315Z,99309.23
2018-12-03T16:58:35.428Z,99312.94
2018-12-03T17:01:03.531Z,99305.67
2018-12-03T17:03:31.679Z,99309.94
2018-12-03T17:05:59.796Z,99307.08
2018-12-03T17:08:27.963Z,99315.18
2018-12-03T17:10:56.213Z,99311.73
2018-12-03T17:13:24.319Z,99313.40
2018-12-03T17:15:52.487Z,99319.81
2018-12-03T17:18:20.600Z,99320.98
2018-12-03T17:22:59.179Z,99323.95
2018-12-03T17:25:27.859Z,99319.09
2018-12-03T17:27:55.979Z,99318.25
2018-12-03T17:31:34.235Z,99318.28
2018-12-03T17:34:02.313Z,99312.94
2018-12-03T17:36:30.441Z,99318.75
2018-12-03T17:38:58.571Z,99316.37
2018-12-03T17:41:26.691Z,99316.85
2018-12-03T17:43:54.878Z,99318.52
2018-12-03T17:46:23.008Z,99320.05
2018-12-03T17:48:51.404Z,99318.64
2018-12-03T17:51:19.577Z,99325.28
2018-12-03T17:53:47.771Z,99320.41
2018-12-03T17:56:15.962Z,99313.88
2018-12-03T17:58:44.111Z,99315.05
2018-12-03T18:01:12.225Z,99309.23
2018-12-03T18:03:40.685Z,99311.85
2018-12-03T18:06:08.971Z,99317.19
2018-12-03T18:08:37.151Z,99315.63
2018-12-03T18:11:05.332Z,99311.72
2018-12-03T18:13:33.501Z,99306.58
2018-12-03T18:16:01.659Z,99312.36
2018-12-03T18:18:29.776Z,99308.55
2018-12-03T18:20:57.911Z,99310.41
2018-12-03T18:23:26.060Z,99311.09
2018-12-03T18:25:54.251Z,99312.03
2018-12-03T18:28:22.363Z,99305.59
2018-12-03T18:30:50.511Z,99311.75
2018-12-03T18:33:18.685Z,99309.72
2018-12-03T18:35:46.794Z,99315.05
2018-12-03T18:38:14.963Z,99314.08
2018-12-03T18:40:43.057Z,99313.67
2018-12-03T18:43:11.191Z,99315.45
2018-12-03T18:45:39.285Z,99309.77
2018-12-03T18:48:09.395Z,99309.66
2018-12-03T18:50:38.808Z,99314.11
2018-12-03T18:53:17.635Z,99314.53
2018-12-03T18:55:45.793Z,99314.06
2018-12-03T18:58:16.384Z,99314.17
2018-12-03T19:00:44.497Z,99320.86
2018-12-03T19:03:12.655Z,99317.93
2018-12-03T19:05:40.814Z,99317.14
2018-12-03T19:08:08.957Z,99320.80
2018-12-03T19:10:37.178Z,99319.02
2018-12-03T19:13:05.337Z,99308.02
2018-12-03T19:15:33.455Z,99308.66
2018-12-03T19:18:01.945Z,99303.80
2018-12-03T19:20:30.078Z,99305.22
2018-12-03T19:22:58.202Z,99304.12
2018-12-03T19:25:26.319Z,99305.00
2018-12-03T19:27:54.452Z,99302.28
2018-12-03T19:30:22.588Z,99299.57
2018-12-03T19:32:50.737Z,99300.56
2018-12-03T19:35:18.963Z,99297.63
2018-12-03T19:37:47.084Z,99291.94
2018-12-03T19:40:15.259Z,99303.12
2018-12-03T19:42:43.387Z,99302.26
2018-12-03T19:45:11.511Z,99311.14
2018-12-03T19:47:39.635Z,99304.04
2018-12-03T19:50:08.700Z,99301.69
2018-12-03T19:52:37.640Z,99302.05
2018-12-03T19:55:08.169Z,99308.02
2018-12-03T19:57:36.881Z,99305.95
2018-12-03T20:00:08.539Z,99312.33
2018-12-03T20:02:36.686Z,99310.73
2018-12-03T20:05:10.017Z,99309.51
2018-12-03T20:07:38.523Z,99310.98
2018-12-03T20:10:07.920Z,99314.32
2018-12-03T20:12:36.039Z,99303.67
2018-12-03T20:15:05.009Z,99303.89
2018-12-03T20:17:36.396Z,99295.34
2018-12-03T20:20:07.227Z,99291.28
2018-12-03T20:23:01.124Z,99295.63
2018-12-03T20:25:34.207Z,99301.72
2018-12-03T20:28:09.967Z,99295.98
2018-12-03T20:30:53.914Z,99294.74
2018-12-03T20:33:26.342Z,99286.89
2018-12-03T20:36:06.845Z,99286.89
2018-12-03T20:38:45.323Z,99287.48
2018-12-03T20:41:17.805Z,99289.03
2018-12-03T20:43:47.620Z,99291.79
2018-12-03T20:46:24.423Z,99285.85
2018-12-03T20:51:04.943Z,99290.38
2018-12-03T20:53:38.100Z,99304.98
2018-12-03T20:56:06.443Z,99309.61
2018-12-03T20:58:34.588Z,99304.19
2018-12-03T21:01:02.715Z,99304.33
2018-12-03T21:03:30.840Z,99304.44
2018-12-03T21:05:58.991Z,99311.22
2018-12-03T21:08:27.119Z,99310.55
2018-12-03T21:10:55.239Z,99317.12
2018-12-03T21:13:23.848Z,99313.42
2018-12-03T21:15:52.052Z,99319.38
2018-12-03T21:18:20.203Z,99314.94
2018-12-03T21:20:50.289Z,99317.77
2018-12-03T21:23:18.487Z,99319.14
2018-12-03T21:25:46.687Z,99315.59
2018-12-03T21:28:14.979Z,99314.94
2018-12-03T21:30:43.141Z,99312.12
2018-12-03T21:33:11.251Z,99310.59
2018-12-03T21:35:39.364Z,99313.35
2018-12-03T21:38:07.571Z,99313.45
2018-12-03T21:40:35.715Z,99313.75
2018-12-03T21:43:03.890Z,99319.36
2018-12-03T21:45:32.076Z,99322.70
2018-12-03T21:48:00.243Z,99332.59
2018-12-03T21:50:28.423Z,99361.56
2018-12-03T21:52:56.562Z,99361.64
2018-12-03T21:55:24.715Z,99383.99
2018-12-03T21:57:54.245Z,99379.38
2018-12-03T22:00:22.373Z,99396.68
2018-12-03T22:02:50.494Z,99403.23
2018-12-03T22:05:18.673Z,99408.66
2018-12-03T22:07:46.846Z,99414.87
2018-12-03T22:10:15.254Z,99426.36
2018-12-03T22:12:43.417Z,99431.97
2018-12-03T22:15:11.563Z,99434.62
2018-12-03T22:17:39.707Z,99448.95
2018-12-03T22:20:10.292Z,99458.52
2018-12-03T22:22:38.487Z,99465.47
2018-12-03T22:25:06.880Z,99466.59
2018-12-03T22:27:34.986Z,99473.01
2018-12-03T22:30:03.407Z,99486.81
2018-12-03T22:32:31.556Z,99495.17
2018-12-03T22:34:59.688Z,99499.64
2018-12-03T22:37:27.835Z,99509.16
2018-12-03T22:39:56.074Z,99520.76
2018-12-03T22:42:24.202Z,99529.11
2018-12-03T22:44:52.330Z,99525.42
2018-12-03T22:47:20.447Z,99533.50
2018-12-03T22:49:48.591Z,99541.20
2018-12-03T22:52:16.738Z,99549.66
2018-12-03T22:54:44.886Z,99553.45
2018-12-03T22:57:12.994Z,99557.66
2018-12-03T22:59:41.130Z,99558.66
2018-12-03T23:02:09.278Z,99569.89
2018-12-03T23:04:40.436Z,99566.83
2018-12-03T23:07:08.690Z,99581.41
2018-12-03T23:09:36.826Z,99582.70
2018-12-03T23:12:05.021Z,99585.48
2018-12-03T23:14:33.187Z,99584.63
2018-12-03T23:17:01.316Z,99587.13
2018-12-03T23:19:29.430Z,99584.72
2018-12-03T23:21:57.547Z,99592.25
2018-12-03T23:24:25.725Z,99594.54
2018-12-03T23:26:53.836Z,99600.92
2018-12-03T23:29:21.993Z,99602.68
2018-12-03T23:31:50.139Z,99603.72
2018-12-03T23:34:18.307Z,99608.92
2018-12-03T23:36:46.444Z,99615.30
2018-12-03T23:39:14.528Z,99622.83
2018-12-03T23:41:42.682Z,99622.38
2018-12-03T23:44:10.823Z,99620.70
2018-12-03T23:46:38.953Z,99625.10
2018-12-03T23:49:07.091Z,99632.14
2018-12-03T23:51:36.328Z,99630.17
2018-12-03T23:54:03.399Z,99628.16
2018-12-03T23:56:31.539Z,99647.98
2018-12-03T23:58:59.741Z,99646.42
